sensor_id;sensor_type;location;lat;lon;timestamp;P1;durP1;ratioP1;P2;durP2;ratioP2
84818;SDS011;75053;51.080;13.712;2023-12-28T00:00:38;1.48;;;0.77;;
84818;SDS011;75053;51.080;13.712;2023-12-28T00:03:03;0.68;;;0.68;;
84818;SDS011;75053;51.080;13.712;2023-12-28T00:05:29;1.60;;;0.65;;
84818;SDS011;75053;51.080;13.712;2023-12-28T00:07:54;2.08;;;0.70;;
84818;SDS011;75053;51.080;13.712;2023-12-28T00:10:26;2.47;;;1.05;;
84818;SDS011;75053;51.080;13.712;2023-12-28T00:12:52;1.25;;;0.80;;
84818;SDS011;75053;51.080;13.712;2023-12-28T00:15:18;0.80;;;0.70;;
84818;SDS011;75053;51.080;13.712;2023-12-28T00:17:44;1.75;;;0.80;;
84818;SDS011;75053;51.080;13.712;2023-12-28T00:20:09;0.98;;;0.35;;
84818;SDS011;75053;51.080;13.712;2023-12-28T00:22:35;1.10;;;0.80;;
84818;SDS011;75053;51.080;13.712;2023-12-28T00:25:05;2.70;;;0.60;;
84818;SDS011;75053;51.080;13.712;2023-12-28T00:27:31;1.98;;;0.77;;
84818;SDS011;75053;51.080;13.712;2023-12-28T00:29:59;2.38;;;0.47;;
84818;SDS011;75053;51.080;13.712;2023-12-28T00:32:24;1.20;;;0.98;;
84818;SDS011;75053;51.080;13.712;2023-12-28T00:34:50;0.65;;;0.65;;
84818;SDS011;75053;51.080;13.712;2023-12-28T00:37:16;0.43;;;0.43;;
84818;SDS011;75053;51.080;13.712;2023-12-28T00:39:41;1.08;;;0.50;;
84818;SDS011;75053;51.080;13.712;2023-12-28T00:42:11;2.03;;;0.50;;
84818;SDS011;75053;51.080;13.712;2023-12-28T00:44:37;0.70;;;0.70;;
84818;SDS011;75053;51.080;13.712;2023-12-28T00:47:02;1.40;;;0.65;;
84818;SDS011;75053;51.080;13.712;2023-12-28T00:49:29;0.47;;;0.43;;
84818;SDS011;75053;51.080;13.712;2023-12-28T00:51:54;1.20;;;0.50;;
84818;SDS011;75053;51.080;13.712;2023-12-28T00:54:20;0.88;;;0.35;;
84818;SDS011;75053;51.080;13.712;2023-12-28T00:56:45;0.57;;;0.55;;
84818;SDS011;75053;51.080;13.712;2023-12-28T00:59:10;0.50;;;0.50;;
84818;SDS011;75053;51.080;13.712;2023-12-28T01:01:36;0.70;;;0.40;;
84818;SDS011;75053;51.080;13.712;2023-12-28T01:04:01;0.47;;;0.47;;
84818;SDS011;75053;51.080;13.712;2023-12-28T01:06:27;0.90;;;0.35;;
84818;SDS011;75053;51.080;13.712;2023-12-28T01:08:54;2.35;;;0.60;;
84818;SDS011;75053;51.080;13.712;2023-12-28T01:11:20;5.20;;;0.80;;
84818;SDS011;75053;51.080;13.712;2023-12-28T01:13:45;1.77;;;0.75;;
84818;SDS011;75053;51.080;13.712;2023-12-28T01:16:12;0.50;;;0.50;;
84818;SDS011;75053;51.080;13.712;2023-12-28T01:18:38;0.40;;;0.40;;
84818;SDS011;75053;51.080;13.712;2023-12-28T01:21:03;0.40;;;0.35;;
84818;SDS011;75053;51.080;13.712;2023-12-28T01:23:29;1.98;;;0.55;;
84818;SDS011;75053;51.080;13.712;2023-12-28T01:25:55;0.60;;;0.60;;
84818;SDS011;75053;51.080;13.712;2023-12-28T01:28:21;0.40;;;0.40;;
84818;SDS011;75053;51.080;13.712;2023-12-28T01:30:47;1.25;;;0.43;;
84818;SDS011;75053;51.080;13.712;2023-12-28T01:33:12;0.88;;;0.60;;
84818;SDS011;75053;51.080;13.712;2023-12-28T01:35:38;0.68;;;0.50;;
84818;SDS011;75053;51.080;13.712;2023-12-28T01:38:09;0.75;;;0.52;;
84818;SDS011;75053;51.080;13.712;2023-12-28T01:40:35;0.63;;;0.38;;
84818;SDS011;75053;51.080;13.712;2023-12-28T01:43:00;0.70;;;0.70;;
84818;SDS011;75053;51.080;13.712;2023-12-28T01:45:25;1.27;;;0.30;;
84818;SDS011;75053;51.080;13.712;2023-12-28T01:47:52;0.40;;;0.30;;
84818;SDS011;75053;51.080;13.712;2023-12-28T01:50:19;0.30;;;0.30;;
84818;SDS011;75053;51.080;13.712;2023-12-28T01:52:46;0.20;;;0.20;;
84818;SDS011;75053;51.080;13.712;2023-12-28T01:55:12;3.08;;;0.43;;
84818;SDS011;75053;51.080;13.712;2023-12-28T01:57:38;1.65;;;0.50;;
84818;SDS011;75053;51.080;13.712;2023-12-28T02:00:04;0.85;;;0.50;;
84818;SDS011;75053;51.080;13.712;2023-12-28T02:02:32;0.50;;;0.35;;
84818;SDS011;75053;51.080;13.712;2023-12-28T02:04:59;0.47;;;0.45;;
84818;SDS011;75053;51.080;13.712;2023-12-28T02:07:25;0.88;;;0.43;;
84818;SDS011;75053;51.080;13.712;2023-12-28T02:09:50;0.63;;;0.57;;
84818;SDS011;75053;51.080;13.712;2023-12-28T02:12:16;1.30;;;0.22;;
84818;SDS011;75053;51.080;13.712;2023-12-28T02:14:43;0.40;;;0.40;;
84818;SDS011;75053;51.080;13.712;2023-12-28T02:19:43;0.43;;;0.43;;
84818;SDS011;75053;51.080;13.712;2023-12-28T02:22:13;0.30;;;0.30;;
84818;SDS011;75053;51.080;13.712;2023-12-28T02:25:00;0.30;;;0.30;;
84818;SDS011;75053;51.080;13.712;2023-12-28T02:27:30;0.50;;;0.50;;
84818;SDS011;75053;51.080;13.712;2023-12-28T02:29:56;0.40;;;0.40;;
84818;SDS011;75053;51.080;13.712;2023-12-28T02:32:25;0.75;;;0.28;;
84818;SDS011;75053;51.080;13.712;2023-12-28T02:35:02;0.50;;;0.50;;
84818;SDS011;75053;51.080;13.712;2023-12-28T02:37:39;0.55;;;0.55;;
84818;SDS011;75053;51.080;13.712;2023-12-28T02:40:06;0.40;;;0.40;;
84818;SDS011;75053;51.080;13.712;2023-12-28T02:42:32;0.40;;;0.20;;
84818;SDS011;75053;51.080;13.712;2023-12-28T02:44:58;0.82;;;0.50;;
84818;SDS011;75053;51.080;13.712;2023-12-28T02:47:23;0.93;;;0.20;;
84818;SDS011;75053;51.080;13.712;2023-12-28T02:49:49;0.20;;;0.20;;
84818;SDS011;75053;51.080;13.712;2023-12-28T02:52:14;0.25;;;0.25;;
84818;SDS011;75053;51.080;13.712;2023-12-28T02:54:39;0.55;;;0.40;;
84818;SDS011;75053;51.080;13.712;2023-12-28T02:57:05;0.47;;;0.32;;
84818;SDS011;75053;51.080;13.712;2023-12-28T02:59:30;0.30;;;0.30;;
84818;SDS011;75053;51.080;13.712;2023-12-28T03:01:56;0.20;;;0.20;;
84818;SDS011;75053;51.080;13.712;2023-12-28T03:04:21;0.25;;;0.25;;
84818;SDS011;75053;51.080;13.712;2023-12-28T03:06:47;0.40;;;0.40;;
84818;SDS011;75053;51.080;13.712;2023-12-28T03:09:13;0.20;;;0.20;;
84818;SDS011;75053;51.080;13.712;2023-12-28T03:11:38;0.75;;;0.30;;
84818;SDS011;75053;51.080;13.712;2023-12-28T03:14:04;0.43;;;0.25;;
84818;SDS011;75053;51.080;13.712;2023-12-28T03:16:29;0.28;;;0.28;;
84818;SDS011;75053;51.080;13.712;2023-12-28T03:18:54;1.02;;;0.40;;
84818;SDS011;75053;51.080;13.712;2023-12-28T03:21:20;0.15;;;0.15;;
84818;SDS011;75053;51.080;13.712;2023-12-28T03:23:45;0.30;;;0.30;;
84818;SDS011;75053;51.080;13.712;2023-12-28T03:26:11;0.40;;;0.40;;
84818;SDS011;75053;51.080;13.712;2023-12-28T03:28:36;0.45;;;0.45;;
84818;SDS011;75053;51.080;13.712;2023-12-28T03:31:02;0.63;;;0.35;;
84818;SDS011;75053;51.080;13.712;2023-12-28T03:33:28;0.22;;;0.20;;
84818;SDS011;75053;51.080;13.712;2023-12-28T03:35:53;0.40;;;0.32;;
84818;SDS011;75053;51.080;13.712;2023-12-28T03:38:19;0.40;;;0.25;;
84818;SDS011;75053;51.080;13.712;2023-12-28T03:40:44;0.40;;;0.20;;
84818;SDS011;75053;51.080;13.712;2023-12-28T03:43:12;0.70;;;0.25;;
84818;SDS011;75053;51.080;13.712;2023-12-28T03:45:38;0.32;;;0.32;;
84818;SDS011;75053;51.080;13.712;2023-12-28T03:48:03;0.40;;;0.20;;
84818;SDS011;75053;51.080;13.712;2023-12-28T03:50:30;0.50;;;0.50;;
84818;SDS011;75053;51.080;13.712;2023-12-28T03:52:55;0.25;;;0.25;;
84818;SDS011;75053;51.080;13.712;2023-12-28T03:55:21;0.20;;;0.20;;
84818;SDS011;75053;51.080;13.712;2023-12-28T03:57:47;1.80;;;0.32;;
84818;SDS011;75053;51.080;13.712;2023-12-28T04:00:12;1.30;;;0.20;;
84818;SDS011;75053;51.080;13.712;2023-12-28T04:02:39;0.20;;;0.20;;
84818;SDS011;75053;51.080;13.712;2023-12-28T04:05:05;0.60;;;0.40;;
84818;SDS011;75053;51.080;13.712;2023-12-28T04:07:32;0.10;;;0.10;;
84818;SDS011;75053;51.080;13.712;2023-12-28T04:09:57;0.40;;;0.30;;
84818;SDS011;75053;51.080;13.712;2023-12-28T04:12:23;0.10;;;0.10;;
84818;SDS011;75053;51.080;13.712;2023-12-28T04:14:49;0.10;;;0.10;;
84818;SDS011;75053;51.080;13.712;2023-12-28T04:17:14;0.20;;;0.20;;
84818;SDS011;75053;51.080;13.712;2023-12-28T04:19:39;1.00;;;0.20;;
84818;SDS011;75053;51.080;13.712;2023-12-28T04:22:05;0.40;;;0.20;;
84818;SDS011;75053;51.080;13.712;2023-12-28T04:24:30;0.63;;;0.22;;
84818;SDS011;75053;51.080;13.712;2023-12-28T04:26:56;2.17;;;0.20;;
84818;SDS011;75053;51.080;13.712;2023-12-28T04:29:21;0.45;;;0.25;;
84818;SDS011;75053;51.080;13.712;2023-12-28T04:31:47;0.20;;;0.10;;
84818;SDS011;75053;51.080;13.712;2023-12-28T04:34:12;0.20;;;0.10;;
84818;SDS011;75053;51.080;13.712;2023-12-28T04:36:41;0.20;;;0.20;;
84818;SDS011;75053;51.080;13.712;2023-12-28T04:39:07;0.20;;;0.15;;
84818;SDS011;75053;51.080;13.712;2023-12-28T04:41:33;0.20;;;0.20;;
84818;SDS011;75053;51.080;13.712;2023-12-28T04:43:58;0.35;;;0.30;;
84818;SDS011;75053;51.080;13.712;2023-12-28T04:46:24;0.15;;;0.15;;
84818;SDS011;75053;51.080;13.712;2023-12-28T04:48:49;1.08;;;0.30;;
84818;SDS011;75053;51.080;13.712;2023-12-28T04:51:14;0.28;;;0.20;;
84818;SDS011;75053;51.080;13.712;2023-12-28T04:53:40;0.17;;;0.08;;
84818;SDS011;75053;51.080;13.712;2023-12-28T04:56:05;0.20;;;0.10;;
84818;SDS011;75053;51.080;13.712;2023-12-28T04:58:31;0.10;;;0.10;;
84818;SDS011;75053;51.080;13.712;2023-12-28T05:00:56;0.28;;;0.10;;
84818;SDS011;75053;51.080;13.712;2023-12-28T05:03:22;0.10;;;0.10;;
84818;SDS011;75053;51.080;13.712;2023-12-28T05:05:47;0.10;;;0.10;;
84818;SDS011;75053;51.080;13.712;2023-12-28T05:08:13;0.30;;;0.30;;
84818;SDS011;75053;51.080;13.712;2023-12-28T05:10:38;0.50;;;0.45;;
84818;SDS011;75053;51.080;13.712;2023-12-28T05:13:04;2.28;;;0.35;;
84818;SDS011;75053;51.080;13.712;2023-12-28T05:15:29;3.35;;;0.77;;
84818;SDS011;75053;51.080;13.712;2023-12-28T05:17:55;2.80;;;0.90;;
84818;SDS011;75053;51.080;13.712;2023-12-28T05:20:20;3.67;;;1.30;;
84818;SDS011;75053;51.080;13.712;2023-12-28T05:22:46;2.10;;;1.00;;
84818;SDS011;75053;51.080;13.712;2023-12-28T05:25:11;5.38;;;1.35;;
84818;SDS011;75053;51.080;13.712;2023-12-28T05:30:40;2.17;;;1.20;;
84818;SDS011;75053;51.080;13.712;2023-12-28T05:33:06;2.50;;;1.25;;
84818;SDS011;75053;51.080;13.712;2023-12-28T05:35:33;4.10;;;1.42;;
84818;SDS011;75053;51.080;13.712;2023-12-28T05:37:59;2.05;;;1.10;;
84818;SDS011;75053;51.080;13.712;2023-12-28T05:40:24;3.22;;;1.40;;
84818;SDS011;75053;51.080;13.712;2023-12-28T05:42:49;2.75;;;1.05;;
84818;SDS011;75053;51.080;13.712;2023-12-28T05:45:15;1.48;;;0.90;;
84818;SDS011;75053;51.080;13.712;2023-12-28T05:47:40;3.00;;;0.70;;
84818;SDS011;75053;51.080;13.712;2023-12-28T05:50:06;1.35;;;1.25;;
84818;SDS011;75053;51.080;13.712;2023-12-28T05:52:37;1.35;;;0.80;;
84818;SDS011;75053;51.080;13.712;2023-12-28T05:55:02;1.15;;;0.73;;
84818;SDS011;75053;51.080;13.712;2023-12-28T05:57:29;2.58;;;0.88;;
84818;SDS011;75053;51.080;13.712;2023-12-28T05:59:59;2.42;;;1.25;;
84818;SDS011;75053;51.080;13.712;2023-12-28T06:02:29;2.78;;;1.00;;
84818;SDS011;75053;51.080;13.712;2023-12-28T06:04:55;2.70;;;0.80;;
84818;SDS011;75053;51.080;13.712;2023-12-28T06:07:25;1.60;;;0.95;;
84818;SDS011;75053;51.080;13.712;2023-12-28T06:09:52;1.20;;;0.57;;
84818;SDS011;75053;51.080;13.712;2023-12-28T06:12:18;0.98;;;0.80;;
84818;SDS011;75053;51.080;13.712;2023-12-28T06:14:46;2.00;;;0.70;;
84818;SDS011;75053;51.080;13.712;2023-12-28T06:17:12;2.47;;;0.70;;
84818;SDS011;75053;51.080;13.712;2023-12-28T06:19:40;0.77;;;0.65;;
84818;SDS011;75053;51.080;13.712;2023-12-28T06:22:06;0.80;;;0.65;;
84818;SDS011;75053;51.080;13.712;2023-12-28T06:24:31;1.58;;;0.65;;
84818;SDS011;75053;51.080;13.712;2023-12-28T06:26:57;0.65;;;0.65;;
84818;SDS011;75053;51.080;13.712;2023-12-28T06:29:22;0.77;;;0.63;;
84818;SDS011;75053;51.080;13.712;2023-12-28T06:34:33;2.63;;;0.63;;
84818;SDS011;75053;51.080;13.712;2023-12-28T06:36:58;0.75;;;0.57;;
84818;SDS011;75053;51.080;13.712;2023-12-28T06:39:26;0.70;;;0.50;;
84818;SDS011;75053;51.080;13.712;2023-12-28T06:41:51;1.52;;;0.65;;
84818;SDS011;75053;51.080;13.712;2023-12-28T06:44:16;0.70;;;0.45;;
84818;SDS011;75053;51.080;13.712;2023-12-28T06:46:43;0.98;;;0.75;;
84818;SDS011;75053;51.080;13.712;2023-12-28T06:49:09;4.05;;;0.68;;
84818;SDS011;75053;51.080;13.712;2023-12-28T06:51:34;0.43;;;0.30;;
84818;SDS011;75053;51.080;13.712;2023-12-28T06:54:00;0.40;;;0.40;;
84818;SDS011;75053;51.080;13.712;2023-12-28T06:56:27;2.50;;;0.65;;
84818;SDS011;75053;51.080;13.712;2023-12-28T06:58:55;2.33;;;0.63;;
84818;SDS011;75053;51.080;13.712;2023-12-28T07:01:21;0.65;;;0.65;;
84818;SDS011;75053;51.080;13.712;2023-12-28T07:03:46;3.78;;;0.88;;
84818;SDS011;75053;51.080;13.712;2023-12-28T07:06:13;1.15;;;0.63;;
84818;SDS011;75053;51.080;13.712;2023-12-28T07:08:39;2.67;;;0.60;;
84818;SDS011;75053;51.080;13.712;2023-12-28T07:11:04;0.73;;;0.55;;
84818;SDS011;75053;51.080;13.712;2023-12-28T07:13:30;0.55;;;0.43;;
84818;SDS011;75053;51.080;13.712;2023-12-28T07:15:55;1.02;;;0.75;;
84818;SDS011;75053;51.080;13.712;2023-12-28T07:18:21;0.63;;;0.32;;
84818;SDS011;75053;51.080;13.712;2023-12-28T07:20:49;0.77;;;0.45;;
84818;SDS011;75053;51.080;13.712;2023-12-28T07:23:14;3.13;;;0.52;;
84818;SDS011;75053;51.080;13.712;2023-12-28T07:25:40;0.85;;;0.52;;
84818;SDS011;75053;51.080;13.712;2023-12-28T07:28:05;0.82;;;0.75;;
84818;SDS011;75053;51.080;13.712;2023-12-28T07:30:31;2.72;;;0.45;;
84818;SDS011;75053;51.080;13.712;2023-12-28T07:32:57;1.48;;;0.47;;
84818;SDS011;75053;51.080;13.712;2023-12-28T07:35:24;0.45;;;0.30;;
84818;SDS011;75053;51.080;13.712;2023-12-28T07:37:49;1.33;;;0.43;;
84818;SDS011;75053;51.080;13.712;2023-12-28T07:40:15;0.20;;;0.20;;
84818;SDS011;75053;51.080;13.712;2023-12-28T07:42:40;0.95;;;0.47;;
84818;SDS011;75053;51.080;13.712;2023-12-28T07:45:06;1.63;;;0.60;;
84818;SDS011;75053;51.080;13.712;2023-12-28T07:47:32;0.50;;;0.40;;
84818;SDS011;75053;51.080;13.712;2023-12-28T07:49:58;0.68;;;0.25;;
84818;SDS011;75053;51.080;13.712;2023-12-28T07:52:24;1.55;;;0.50;;
84818;SDS011;75053;51.080;13.712;2023-12-28T07:54:50;1.40;;;0.50;;
84818;SDS011;75053;51.080;13.712;2023-12-28T07:57:15;0.38;;;0.30;;
84818;SDS011;75053;51.080;13.712;2023-12-28T07:59:41;1.63;;;0.45;;
84818;SDS011;75053;51.080;13.712;2023-12-28T08:02:07;0.65;;;0.40;;
84818;SDS011;75053;51.080;13.712;2023-12-28T08:04:33;0.52;;;0.40;;
84818;SDS011;75053;51.080;13.712;2023-12-28T08:06:59;0.65;;;0.40;;
84818;SDS011;75053;51.080;13.712;2023-12-28T08:09:24;3.40;;;0.30;;
84818;SDS011;75053;51.080;13.712;2023-12-28T08:11:50;0.52;;;0.47;;
84818;SDS011;75053;51.080;13.712;2023-12-28T08:14:15;1.35;;;0.45;;
84818;SDS011;75053;51.080;13.712;2023-12-28T08:16:41;0.43;;;0.30;;
84818;SDS011;75053;51.080;13.712;2023-12-28T08:19:06;1.48;;;0.43;;
84818;SDS011;75053;51.080;13.712;2023-12-28T08:21:32;0.43;;;0.25;;
84818;SDS011;75053;51.080;13.712;2023-12-28T08:23:57;1.73;;;0.30;;
84818;SDS011;75053;51.080;13.712;2023-12-28T08:26:23;0.50;;;0.30;;
84818;SDS011;75053;51.080;13.712;2023-12-28T08:28:48;0.32;;;0.32;;
84818;SDS011;75053;51.080;13.712;2023-12-28T08:31:14;0.30;;;0.30;;
84818;SDS011;75053;51.080;13.712;2023-12-28T08:33:40;0.70;;;0.30;;
84818;SDS011;75053;51.080;13.712;2023-12-28T08:36:06;1.77;;;0.35;;
84818;SDS011;75053;51.080;13.712;2023-12-28T08:38:32;0.50;;;0.47;;
84818;SDS011;75053;51.080;13.712;2023-12-28T08:40:58;1.55;;;0.35;;
84818;SDS011;75053;51.080;13.712;2023-12-28T08:43:23;0.45;;;0.30;;
84818;SDS011;75053;51.080;13.712;2023-12-28T08:45:50;1.17;;;0.30;;
84818;SDS011;75053;51.080;13.712;2023-12-28T08:48:16;1.85;;;0.40;;
84818;SDS011;75053;51.080;13.712;2023-12-28T08:50:41;0.38;;;0.25;;
84818;SDS011;75053;51.080;13.712;2023-12-28T08:53:07;0.47;;;0.20;;
84818;SDS011;75053;51.080;13.712;2023-12-28T08:55:32;0.40;;;0.30;;
84818;SDS011;75053;51.080;13.712;2023-12-28T08:57:58;0.73;;;0.50;;
84818;SDS011;75053;51.080;13.712;2023-12-28T09:00:24;1.45;;;0.40;;
84818;SDS011;75053;51.080;13.712;2023-12-28T09:02:50;0.40;;;0.30;;
84818;SDS011;75053;51.080;13.712;2023-12-28T09:05:17;0.52;;;0.47;;
84818;SDS011;75053;51.080;13.712;2023-12-28T09:07:43;3.28;;;0.80;;
84818;SDS011;75053;51.080;13.712;2023-12-28T09:10:09;7.60;;;1.23;;
84818;SDS011;75053;51.080;13.712;2023-12-28T09:12:36;1.17;;;0.95;;
84818;SDS011;75053;51.080;13.712;2023-12-28T09:15:02;0.57;;;0.47;;
84818;SDS011;75053;51.080;13.712;2023-12-28T09:20:05;1.23;;;0.75;;
84818;SDS011;75053;51.080;13.712;2023-12-28T09:22:31;5.05;;;0.90;;
84818;SDS011;75053;51.080;13.712;2023-12-28T09:25:01;1.90;;;1.00;;
84818;SDS011;75053;51.080;13.712;2023-12-28T09:27:31;1.30;;;0.80;;
84818;SDS011;75053;51.080;13.712;2023-12-28T09:29:56;1.40;;;0.88;;
84818;SDS011;75053;51.080;13.712;2023-12-28T09:32:22;1.17;;;0.70;;
84818;SDS011;75053;51.080;13.712;2023-12-28T09:34:50;1.23;;;0.82;;
84818;SDS011;75053;51.080;13.712;2023-12-28T09:37:16;1.67;;;0.93;;
84818;SDS011;75053;51.080;13.712;2023-12-28T09:39:42;5.78;;;0.73;;
84818;SDS011;75053;51.080;13.712;2023-12-28T09:42:15;1.05;;;1.00;;
84818;SDS011;75053;51.080;13.712;2023-12-28T09:45:00;1.85;;;1.00;;
84818;SDS011;75053;51.080;13.712;2023-12-28T09:47:26;0.68;;;0.68;;
84818;SDS011;75053;51.080;13.712;2023-12-28T09:49:51;2.40;;;0.73;;
84818;SDS011;75053;51.080;13.712;2023-12-28T09:52:17;2.72;;;0.93;;
84818;SDS011;75053;51.080;13.712;2023-12-28T09:54:43;1.63;;;0.90;;
84818;SDS011;75053;51.080;13.712;2023-12-28T09:57:09;1.20;;;0.80;;
84818;SDS011;75053;51.080;13.712;2023-12-28T09:59:35;0.90;;;0.90;;
84818;SDS011;75053;51.080;13.712;2023-12-28T10:02:03;2.53;;;1.02;;
84818;SDS011;75053;51.080;13.712;2023-12-28T10:04:29;0.68;;;0.45;;
84818;SDS011;75053;51.080;13.712;2023-12-28T10:06:55;0.90;;;0.82;;
84818;SDS011;75053;51.080;13.712;2023-12-28T10:09:23;1.52;;;0.80;;
84818;SDS011;75053;51.080;13.712;2023-12-28T10:11:53;1.50;;;0.88;;
84818;SDS011;75053;51.080;13.712;2023-12-28T10:14:19;3.42;;;0.60;;
84818;SDS011;75053;51.080;13.712;2023-12-28T10:16:45;4.03;;;1.27;;
84818;SDS011;75053;51.080;13.712;2023-12-28T10:19:11;5.53;;;1.08;;
84818;SDS011;75053;51.080;13.712;2023-12-28T10:21:38;2.53;;;0.80;;
84818;SDS011;75053;51.080;13.712;2023-12-28T10:24:05;3.38;;;1.08;;
84818;SDS011;75053;51.080;13.712;2023-12-28T10:26:31;1.85;;;1.05;;
84818;SDS011;75053;51.080;13.712;2023-12-28T10:28:59;16.02;;;1.60;;
84818;SDS011;75053;51.080;13.712;2023-12-28T10:31:25;26.73;;;1.75;;
84818;SDS011;75053;51.080;13.712;2023-12-28T10:33:50;49.42;;;3.55;;
84818;SDS011;75053;51.080;13.712;2023-12-28T10:36:17;52.20;;;3.70;;
84818;SDS011;75053;51.080;13.712;2023-12-28T10:38:52;64.68;;;5.55;;
84818;SDS011;75053;51.080;13.712;2023-12-28T10:41:25;20.35;;;2.55;;
84818;SDS011;75053;51.080;13.712;2023-12-28T10:44:04;17.83;;;1.83;;
84818;SDS011;75053;51.080;13.712;2023-12-28T10:46:31;55.65;;;3.50;;
84818;SDS011;75053;51.080;13.712;2023-12-28T10:48:59;114.20;;;8.13;;
84818;SDS011;75053;51.080;13.712;2023-12-28T10:51:30;61.78;;;4.07;;
84818;SDS011;75053;51.080;13.712;2023-12-28T10:56:59;44.38;;;4.13;;
84818;SDS011;75053;51.080;13.712;2023-12-28T11:02:06;24.50;;;2.53;;
84818;SDS011;75053;51.080;13.712;2023-12-28T11:04:40;31.33;;;3.08;;
84818;SDS011;75053;51.080;13.712;2023-12-28T11:07:07;29.55;;;2.28;;
84818;SDS011;75053;51.080;13.712;2023-12-28T11:09:36;21.10;;;2.42;;
84818;SDS011;75053;51.080;13.712;2023-12-28T11:12:03;25.77;;;3.30;;
84818;SDS011;75053;51.080;13.712;2023-12-28T11:14:33;22.05;;;2.65;;
84818;SDS011;75053;51.080;13.712;2023-12-28T11:19:36;20.77;;;2.72;;
84818;SDS011;75053;51.080;13.712;2023-12-28T11:22:03;14.05;;;1.92;;
84818;SDS011;75053;51.080;13.712;2023-12-28T11:24:29;15.80;;;2.17;;
84818;SDS011;75053;51.080;13.712;2023-12-28T11:26:55;12.38;;;2.33;;
84818;SDS011;75053;51.080;13.712;2023-12-28T11:29:22;21.40;;;1.67;;
84818;SDS011;75053;51.080;13.712;2023-12-28T11:31:55;8.15;;;1.80;;
84818;SDS011;75053;51.080;13.712;2023-12-28T11:34:28;8.77;;;1.90;;
84818;SDS011;75053;51.080;13.712;2023-12-28T11:36:55;6.75;;;1.45;;
84818;SDS011;75053;51.080;13.712;2023-12-28T11:42:09;10.32;;;1.70;;
84818;SDS011;75053;51.080;13.712;2023-12-28T11:44:38;2.97;;;1.23;;
84818;SDS011;75053;51.080;13.712;2023-12-28T11:47:14;5.65;;;2.05;;
84818;SDS011;75053;51.080;13.712;2023-12-28T11:49:48;5.53;;;0.93;;
84818;SDS011;75053;51.080;13.712;2023-12-28T11:52:49;10.70;;;1.92;;
84818;SDS011;75053;51.080;13.712;2023-12-28T11:55:08;6.28;;;1.15;;
84818;SDS011;75053;51.080;13.712;2023-12-28T11:57:35;3.78;;;1.02;;
84818;SDS011;75053;51.080;13.712;2023-12-28T12:00:02;5.75;;;1.00;;
84818;SDS011;75053;51.080;13.712;2023-12-28T12:02:30;3.08;;;1.00;;
84818;SDS011;75053;51.080;13.712;2023-12-28T12:04:56;4.85;;;2.38;;
84818;SDS011;75053;51.080;13.712;2023-12-28T12:07:26;7.18;;;3.45;;
84818;SDS011;75053;51.080;13.712;2023-12-28T12:09:58;14.77;;;8.25;;
84818;SDS011;75053;51.080;13.712;2023-12-28T12:12:25;15.18;;;9.82;;
84818;SDS011;75053;51.080;13.712;2023-12-28T12:14:56;15.15;;;11.02;;
84818;SDS011;75053;51.080;13.712;2023-12-28T12:17:21;17.65;;;10.60;;
84818;SDS011;75053;51.080;13.712;2023-12-28T12:19:47;15.00;;;10.50;;
84818;SDS011;75053;51.080;13.712;2023-12-28T12:22:16;9.77;;;8.77;;
84818;SDS011;75053;51.080;13.712;2023-12-28T12:24:45;14.25;;;9.02;;
84818;SDS011;75053;51.080;13.712;2023-12-28T12:27:13;10.45;;;8.50;;
84818;SDS011;75053;51.080;13.712;2023-12-28T12:29:39;13.48;;;9.18;;
84818;SDS011;75053;51.080;13.712;2023-12-28T12:32:05;13.68;;;8.32;;
84818;SDS011;75053;51.080;13.712;2023-12-28T12:34:31;11.23;;;7.72;;
84818;SDS011;75053;51.080;13.712;2023-12-28T12:36:57;8.52;;;7.18;;
84818;SDS011;75053;51.080;13.712;2023-12-28T12:39:23;10.45;;;8.27;;
84818;SDS011;75053;51.080;13.712;2023-12-28T12:41:49;10.55;;;7.25;;
84818;SDS011;75053;51.080;13.712;2023-12-28T12:44:15;7.57;;;6.55;;
84818;SDS011;75053;51.080;13.712;2023-12-28T12:46:42;11.45;;;7.35;;
84818;SDS011;75053;51.080;13.712;2023-12-28T12:49:07;9.23;;;6.93;;
84818;SDS011;75053;51.080;13.712;2023-12-28T12:51:33;11.38;;;7.22;;
84818;SDS011;75053;51.080;13.712;2023-12-28T12:53:58;22.38;;;12.63;;
84818;SDS011;75053;51.080;13.712;2023-12-28T12:56:27;17.77;;;10.65;;
84818;SDS011;75053;51.080;13.712;2023-12-28T12:58:53;21.67;;;11.43;;
84818;SDS011;75053;51.080;13.712;2023-12-28T13:01:19;22.95;;;11.65;;
84818;SDS011;75053;51.080;13.712;2023-12-28T13:03:45;26.35;;;14.38;;
84818;SDS011;75053;51.080;13.712;2023-12-28T13:06:11;25.83;;;14.77;;
84818;SDS011;75053;51.080;13.712;2023-12-28T13:08:37;33.72;;;16.63;;
84818;SDS011;75053;51.080;13.712;2023-12-28T13:11:02;34.13;;;17.55;;
84818;SDS011;75053;51.080;13.712;2023-12-28T13:13:31;32.65;;;17.88;;
84818;SDS011;75053;51.080;13.712;2023-12-28T13:15:56;42.22;;;23.85;;
84818;SDS011;75053;51.080;13.712;2023-12-28T13:18:22;45.92;;;22.88;;
84818;SDS011;75053;51.080;13.712;2023-12-28T13:20:47;51.25;;;27.85;;
84818;SDS011;75053;51.080;13.712;2023-12-28T13:23:14;60.53;;;30.70;;
84818;SDS011;75053;51.080;13.712;2023-12-28T13:25:40;60.05;;;30.23;;
84818;SDS011;75053;51.080;13.712;2023-12-28T13:28:06;78.55;;;36.88;;
84818;SDS011;75053;51.080;13.712;2023-12-28T13:30:31;82.03;;;37.35;;
84818;SDS011;75053;51.080;13.712;2023-12-28T13:32:57;81.20;;;38.55;;
84818;SDS011;75053;51.080;13.712;2023-12-28T13:35:23;76.72;;;35.58;;
84818;SDS011;75053;51.080;13.712;2023-12-28T13:37:48;88.25;;;40.42;;
84818;SDS011;75053;51.080;13.712;2023-12-28T13:40:13;96.10;;;41.65;;
84818;SDS011;75053;51.080;13.712;2023-12-28T13:42:40;87.07;;;40.42;;
84818;SDS011;75053;51.080;13.712;2023-12-28T13:45:12;79.38;;;39.22;;
84818;SDS011;75053;51.080;13.712;2023-12-28T13:47:37;84.05;;;38.58;;
84818;SDS011;75053;51.080;13.712;2023-12-28T13:50:03;77.38;;;38.42;;
84818;SDS011;75053;51.080;13.712;2023-12-28T13:52:29;74.38;;;35.67;;
84818;SDS011;75053;51.080;13.712;2023-12-28T13:54:55;66.32;;;34.90;;
84818;SDS011;75053;51.080;13.712;2023-12-28T13:57:20;54.13;;;30.35;;
84818;SDS011;75053;51.080;13.712;2023-12-28T13:59:46;55.63;;;30.13;;
84818;SDS011;75053;51.080;13.712;2023-12-28T14:02:11;48.45;;;28.13;;
84818;SDS011;75053;51.080;13.712;2023-12-28T14:04:37;45.92;;;26.58;;
84818;SDS011;75053;51.080;13.712;2023-12-28T14:07:02;41.13;;;24.42;;
84818;SDS011;75053;51.080;13.712;2023-12-28T14:09:29;39.50;;;23.02;;
84818;SDS011;75053;51.080;13.712;2023-12-28T14:11:55;35.10;;;16.95;;
84818;SDS011;75053;51.080;13.712;2023-12-28T14:14:21;36.10;;;17.88;;
84818;SDS011;75053;51.080;13.712;2023-12-28T14:16:46;32.78;;;16.40;;
84818;SDS011;75053;51.080;13.712;2023-12-28T14:19:12;27.00;;;16.05;;
84818;SDS011;75053;51.080;13.712;2023-12-28T14:21:38;30.95;;;17.15;;
84818;SDS011;75053;51.080;13.712;2023-12-28T14:24:05;24.77;;;14.40;;
84818;SDS011;75053;51.080;13.712;2023-12-28T14:26:31;26.85;;;16.10;;
84818;SDS011;75053;51.080;13.712;2023-12-28T14:28:58;27.20;;;15.25;;
84818;SDS011;75053;51.080;13.712;2023-12-28T14:31:25;32.58;;;17.77;;
84818;SDS011;75053;51.080;13.712;2023-12-28T14:33:54;30.05;;;16.02;;
84818;SDS011;75053;51.080;13.712;2023-12-28T14:36:34;35.58;;;18.95;;
84818;SDS011;75053;51.080;13.712;2023-12-28T14:39:03;32.28;;;19.08;;
84818;SDS011;75053;51.080;13.712;2023-12-28T14:41:33;29.35;;;17.55;;
84818;SDS011;75053;51.080;13.712;2023-12-28T14:44:03;30.05;;;18.05;;
84818;SDS011;75053;51.080;13.712;2023-12-28T14:46:29;32.15;;;17.92;;